sensor_id;sensor_type;location;lat;lon;timestamp;pressure;altitude;pressure_sealevel;temperature;humidity
77737;BME280;66903;59.926;30.404;2023-08-12T00:01:16;101909.25;;;26.56;47.48
77737;BME280;66903;59.926;30.404;2023-08-12T00:06:17;101915.72;;;26.81;47.76
77737;BME280;66903;59.926;30.404;2023-08-12T00:11:18;101923.28;;;27.11;46.77
77737;BME280;66903;59.926;30.404;2023-08-12T00:16:19;101917.66;;;26.96;46.98
77737;BME280;66903;59.926;30.404;2023-08-12T00:21:19;101916.97;;;26.60;47.16
77737;BME280;66903;59.926;30.404;2023-08-12T00:26:20;101897.59;;;26.32;47.85
77737;BME280;66903;59.926;30.404;2023-08-12T00:31:21;101901.94;;;26.30;48.35
77737;BME280;66903;59.926;30.404;2023-08-12T00:36:21;101905.38;;;26.27;48.64
77737;BME280;66903;59.926;30.404;2023-08-12T00:41:22;101902.78;;;26.30;48.36
77737;BME280;66903;59.926;30.404;2023-08-12T00:46:23;101904.09;;;26.53;48.34
77737;BME280;66903;59.926;30.404;2023-08-12T00:51:24;101903.75;;;26.69;48.03
77737;BME280;66903;59.926;30.404;2023-08-12T00:56:26;101899.09;;;26.83;47.97
77737;BME280;66903;59.926;30.404;2023-08-12T01:01:27;101907.84;;;27.07;47.83
77737;BME280;66903;59.926;30.404;2023-08-12T01:06:27;101913.09;;;27.28;47.89
77737;BME280;66903;59.926;30.404;2023-08-12T01:11:36;101907.78;;;27.51;47.14
77737;BME280;66903;59.926;30.404;2023-08-12T01:16:42;101905.19;;;27.54;47.13
77737;BME280;66903;59.926;30.404;2023-08-12T01:21:44;101893.13;;;27.52;47.42
77737;BME280;66903;59.926;30.404;2023-08-12T01:26:45;101889.50;;;27.42;47.53
77737;BME280;66903;59.926;30.404;2023-08-12T01:31:52;101896.88;;;27.48;47.36
77737;BME280;66903;59.926;30.404;2023-08-12T01:36:56;101891.59;;;27.60;46.81
77737;BME280;66903;59.926;30.404;2023-08-12T01:41:58;101876.66;;;27.63;46.55
77737;BME280;66903;59.926;30.404;2023-08-12T01:46:59;101882.13;;;27.31;47.13
77737;BME280;66903;59.926;30.404;2023-08-12T01:52:00;101865.56;;;26.84;47.28
77737;BME280;66903;59.926;30.404;2023-08-12T01:57:02;101871.75;;;26.52;48.12
77737;BME280;66903;59.926;30.404;2023-08-12T02:02:05;101861.81;;;26.35;48.53
77737;BME280;66903;59.926;30.404;2023-08-12T02:07:06;101872.38;;;26.34;48.60
77737;BME280;66903;59.926;30.404;2023-08-12T02:12:06;101866.41;;;26.31;48.58
77737;BME280;66903;59.926;30.404;2023-08-12T02:17:07;101869.97;;;26.56;48.45
77737;BME280;66903;59.926;30.404;2023-08-12T02:22:08;101867.22;;;26.90;47.79
77737;BME280;66903;59.926;30.404;2023-08-12T02:27:10;101865.78;;;27.26;47.35
77737;BME280;66903;59.926;30.404;2023-08-12T02:32:11;101857.47;;;27.58;46.61
77737;BME280;66903;59.926;30.404;2023-08-12T02:37:11;101850.84;;;27.86;46.28
77737;BME280;66903;59.926;30.404;2023-08-12T02:42:13;101858.94;;;28.08;45.71
77737;BME280;66903;59.926;30.404;2023-08-12T02:47:13;101860.28;;;27.92;45.07
77737;BME280;66903;59.926;30.404;2023-08-12T02:52:14;101865.31;;;27.48;45.96
77737;BME280;66903;59.926;30.404;2023-08-12T02:57:14;101880.34;;;27.01;46.44
77737;BME280;66903;59.926;30.404;2023-08-12T03:02:15;101878.56;;;26.61;46.64
77737;BME280;66903;59.926;30.404;2023-08-12T03:07:17;101891.00;;;26.32;46.98
77737;BME280;66903;59.926;30.404;2023-08-12T03:12:18;101878.38;;;26.43;47.50
77737;BME280;66903;59.926;30.404;2023-08-12T03:17:18;101886.28;;;26.66;46.89
77737;BME280;66903;59.926;30.404;2023-08-12T03:22:19;101882.84;;;26.64;46.75
77737;BME280;66903;59.926;30.404;2023-08-12T03:27:19;101882.63;;;26.50;46.66
77737;BME280;66903;59.926;30.404;2023-08-12T03:32:20;101880.91;;;26.49;47.00
77737;BME280;66903;59.926;30.404;2023-08-12T03:37:20;101885.97;;;26.72;46.73
77737;BME280;66903;59.926;30.404;2023-08-12T03:42:21;101885.03;;;26.87;46.66
77737;BME280;66903;59.926;30.404;2023-08-12T03:47:22;101884.38;;;26.95;46.54
77737;BME280;66903;59.926;30.404;2023-08-12T03:52:24;101879.88;;;27.22;45.94
77737;BME280;66903;59.926;30.404;2023-08-12T03:57:24;101882.94;;;27.36;45.57
77737;BME280;66903;59.926;30.404;2023-08-12T04:02:25;101880.69;;;27.33;45.78
77737;BME280;66903;59.926;30.404;2023-08-12T04:07:25;101863.00;;;27.50;45.75
77737;BME280;66903;59.926;30.404;2023-08-12T04:12:27;101885.28;;;27.63;45.88
77737;BME280;66903;59.926;30.404;2023-08-12T04:17:27;101875.88;;;27.81;45.31
77737;BME280;66903;59.926;30.404;2023-08-12T04:22:28;101880.47;;;27.82;45.07
77737;BME280;66903;59.926;30.404;2023-08-12T04:27:28;101889.72;;;27.79;45.05
77737;BME280;66903;59.926;30.404;2023-08-12T04:32:29;101884.50;;;27.81;45.22
77737;BME280;66903;59.926;30.404;2023-08-12T04:37:30;101871.88;;;27.82;45.38
77737;BME280;66903;59.926;30.404;2023-08-12T04:42:32;101871.63;;;27.78;45.39
77737;BME280;66903;59.926;30.404;2023-08-12T04:47:32;101872.94;;;27.62;44.75
77737;BME280;66903;59.926;30.404;2023-08-12T04:52:33;101871.66;;;27.45;44.94
77737;BME280;66903;59.926;30.404;2023-08-12T04:57:34;101866.44;;;27.52;45.08
77737;BME280;66903;59.926;30.404;2023-08-12T05:02:35;101874.44;;;27.55;45.22
77737;BME280;66903;59.926;30.404;2023-08-12T05:07:35;101868.63;;;27.60;43.92
77737;BME280;66903;59.926;30.404;2023-08-12T05:12:36;101863.66;;;27.42;43.99
77737;BME280;66903;59.926;30.404;2023-08-12T05:17:37;101867.84;;;27.20;45.50
77737;BME280;66903;59.926;30.404;2023-08-12T05:22:38;101866.22;;;27.43;44.77
77737;BME280;66903;59.926;30.404;2023-08-12T05:27:38;101863.91;;;27.74;43.30
77737;BME280;66903;59.926;30.404;2023-08-12T05:32:39;101863.63;;;27.75;44.45
77737;BME280;66903;59.926;30.404;2023-08-12T05:37:39;101860.78;;;27.99;44.02
77737;BME280;66903;59.926;30.404;2023-08-12T05:42:40;101860.00;;;28.17;44.36
77737;BME280;66903;59.926;30.404;2023-08-12T05:47:41;101866.41;;;28.56;43.44
77737;BME280;66903;59.926;30.404;2023-08-12T05:52:41;101867.03;;;28.72;42.34
77737;BME280;66903;59.926;30.404;2023-08-12T05:57:42;101855.19;;;28.55;42.26
77737;BME280;66903;59.926;30.404;2023-08-12T06:02:42;101847.47;;;28.31;42.14
77737;BME280;66903;59.926;30.404;2023-08-12T06:07:43;101846.53;;;28.12;42.89
77737;BME280;66903;59.926;30.404;2023-08-12T06:12:43;101844.41;;;27.99;42.24
77737;BME280;66903;59.926;30.404;2023-08-12T06:17:44;101844.78;;;27.88;43.07
77737;BME280;66903;59.926;30.404;2023-08-12T06:22:45;101861.25;;;27.82;43.69
77737;BME280;66903;59.926;30.404;2023-08-12T06:27:46;101859.22;;;27.83;43.84
77737;BME280;66903;59.926;30.404;2023-08-12T06:32:49;101856.66;;;27.81;43.45
77737;BME280;66903;59.926;30.404;2023-08-12T06:37:50;101852.13;;;27.75;42.57
77737;BME280;66903;59.926;30.404;2023-08-12T06:42:51;101862.94;;;27.55;42.61
77737;BME280;66903;59.926;30.404;2023-08-12T06:47:51;101859.75;;;27.27;42.60
77737;BME280;66903;59.926;30.404;2023-08-12T06:52:52;101874.84;;;27.04;43.33
77737;BME280;66903;59.926;30.404;2023-08-12T06:57:52;101869.19;;;26.94;43.16
77737;BME280;66903;59.926;30.404;2023-08-12T07:02:53;101878.59;;;27.05;43.06
77737;BME280;66903;59.926;30.404;2023-08-12T07:07:53;101872.66;;;27.30;42.48
77737;BME280;66903;59.926;30.404;2023-08-12T07:12:54;101871.75;;;27.68;42.27
77737;BME280;66903;59.926;30.404;2023-08-12T07:17:55;101874.38;;;28.17;41.43
77737;BME280;66903;59.926;30.404;2023-08-12T07:22:56;101891.59;;;28.83;40.99
77737;BME280;66903;59.926;30.404;2023-08-12T07:27:57;101889.19;;;29.27;40.67
77737;BME280;66903;59.926;30.404;2023-08-12T07:32:58;101888.13;;;29.74;40.31
77737;BME280;66903;59.926;30.404;2023-08-12T07:37:58;101884.22;;;30.24;39.49
77737;BME280;66903;59.926;30.404;2023-08-12T07:42:59;101884.75;;;30.67;38.96
77737;BME280;66903;59.926;30.404;2023-08-12T07:47:59;101891.13;;;30.91;38.46
77737;BME280;66903;59.926;30.404;2023-08-12T07:53:00;101889.22;;;31.22;37.81
77737;BME280;66903;59.926;30.404;2023-08-12T07:58:00;101890.75;;;31.19;37.53
77737;BME280;66903;59.926;30.404;2023-08-12T08:03:01;101899.81;;;31.26;37.86
77737;BME280;66903;59.926;30.404;2023-08-12T08:08:02;101901.03;;;31.48;37.50
77737;BME280;66903;59.926;30.404;2023-08-12T08:13:03;101892.34;;;31.70;37.14
77737;BME280;66903;59.926;30.404;2023-08-12T08:18:03;101897.13;;;31.96;37.10
77737;BME280;66903;59.926;30.404;2023-08-12T08:23:04;101900.47;;;32.20;36.32
77737;BME280;66903;59.926;30.404;2023-08-12T08:28:05;101902.59;;;32.37;36.18
77737;BME280;66903;59.926;30.404;2023-08-12T08:33:05;101893.63;;;32.47;36.18
77737;BME280;66903;59.926;30.404;2023-08-12T08:38:06;101894.88;;;32.63;35.77
77737;BME280;66903;59.926;30.404;2023-08-12T08:43:08;101908.00;;;32.78;35.78
77737;BME280;66903;59.926;30.404;2023-08-12T08:48:09;101895.25;;;32.87;35.77
77737;BME280;66903;59.926;30.404;2023-08-12T08:53:10;101900.75;;;32.97;35.85
77737;BME280;66903;59.926;30.404;2023-08-12T08:58:11;101893.44;;;33.08;35.20
77737;BME280;66903;59.926;30.404;2023-08-12T09:03:13;101908.59;;;33.22;35.64
77737;BME280;66903;59.926;30.404;2023-08-12T09:08:15;101902.63;;;33.36;34.90
77737;BME280;66903;59.926;30.404;2023-08-12T09:13:17;101903.69;;;33.48;34.67
77737;BME280;66903;59.926;30.404;2023-08-12T09:18:19;101906.56;;;33.57;34.82
77737;BME280;66903;59.926;30.404;2023-08-12T09:23:19;101905.56;;;33.62;34.43
77737;BME280;66903;59.926;30.404;2023-08-12T09:28:20;101902.13;;;33.68;34.44
77737;BME280;66903;59.926;30.404;2023-08-12T09:33:24;101906.72;;;33.78;34.89
77737;BME280;66903;59.926;30.404;2023-08-12T09:38:28;101902.44;;;33.84;34.10
77737;BME280;66903;59.926;30.404;2023-08-12T09:43:29;101900.06;;;33.86;34.00
77737;BME280;66903;59.926;30.404;2023-08-12T09:48:30;101892.88;;;33.83;34.19
77737;BME280;66903;59.926;30.404;2023-08-12T09:53:31;101901.78;;;33.70;34.89
77737;BME280;66903;59.926;30.404;2023-08-12T09:58:33;101896.56;;;33.46;34.65
77737;BME280;66903;59.926;30.404;2023-08-12T10:03:37;101900.25;;;33.38;35.07
77737;BME280;66903;59.926;30.404;2023-08-12T10:08:38;101893.59;;;33.37;35.19
77737;BME280;66903;59.926;30.404;2023-08-12T10:13:40;101895.31;;;33.38;34.75
77737;BME280;66903;59.926;30.404;2023-08-12T10:18:41;101901.28;;;33.42;35.32
77737;BME280;66903;59.926;30.404;2023-08-12T10:23:43;101892.78;;;33.45;34.58
77737;BME280;66903;59.926;30.404;2023-08-12T10:28:44;101888.34;;;33.65;34.63
77737;BME280;66903;59.926;30.404;2023-08-12T10:33:44;101889.91;;;34.17;33.98
77737;BME280;66903;59.926;30.404;2023-08-12T10:38:48;101893.75;;;35.05;32.90
77737;BME280;66903;59.926;30.404;2023-08-12T10:44:00;101889.50;;;35.77;31.97
77737;BME280;66903;59.926;30.404;2023-08-12T10:49:10;101888.19;;;35.53;32.05
77737;BME280;66903;59.926;30.404;2023-08-12T10:54:25;101883.53;;;34.99;32.48
77737;BME280;66903;59.926;30.404;2023-08-12T11:04:56;101880.41;;;34.08;33.60
77737;BME280;66903;59.926;30.404;2023-08-12T11:15:14;101864.47;;;33.42;34.39
77737;BME280;66903;59.926;30.404;2023-08-12T11:20:15;101868.22;;;33.17;34.25
77737;BME280;66903;59.926;30.404;2023-08-12T11:25:15;101868.25;;;33.00;34.21
77737;BME280;66903;59.926;30.404;2023-08-12T11:30:20;101863.28;;;32.92;34.79
77737;BME280;66903;59.926;30.404;2023-08-12T11:35:23;101866.81;;;32.81;34.78
77737;BME280;66903;59.926;30.404;2023-08-12T11:40:26;101870.34;;;32.69;35.06
77737;BME280;66903;59.926;30.404;2023-08-12T11:45:27;101874.63;;;32.63;34.57
77737;BME280;66903;59.926;30.404;2023-08-12T11:50:28;101867.09;;;32.53;34.43
77737;BME280;66903;59.926;30.404;2023-08-12T11:55:29;101877.47;;;32.46;34.57
77737;BME280;66903;59.926;30.404;2023-08-12T12:00:30;101864.13;;;32.36;34.99
77737;BME280;66903;59.926;30.404;2023-08-12T12:05:31;101862.38;;;32.27;34.87
77737;BME280;66903;59.926;30.404;2023-08-12T12:10:33;101866.09;;;32.19;34.88
77737;BME280;66903;59.926;30.404;2023-08-12T12:15:43;101867.94;;;32.15;35.25
77737;BME280;66903;59.926;30.404;2023-08-12T12:20:57;101876.78;;;32.10;35.62
77737;BME280;66903;59.926;30.404;2023-08-12T12:25:59;101871.81;;;32.02;35.59
77737;BME280;66903;59.926;30.404;2023-08-12T12:31:00;101857.53;;;32.05;35.87
77737;BME280;66903;59.926;30.404;2023-08-12T12:36:01;101867.91;;;32.06;35.80
77737;BME280;66903;59.926;30.404;2023-08-12T12:41:02;101856.34;;;32.06;35.71
77737;BME280;66903;59.926;30.404;2023-08-12T12:46:02;101848.19;;;32.08;35.49
77737;BME280;66903;59.926;30.404;2023-08-12T12:51:03;101855.56;;;32.14;35.12
77737;BME280;66903;59.926;30.404;2023-08-12T12:56:04;101845.66;;;32.07;35.50
77737;BME280;66903;59.926;30.404;2023-08-12T13:01:05;101840.38;;;32.09;35.53
77737;BME280;66903;59.926;30.404;2023-08-12T13:06:06;101844.44;;;32.08;35.60
77737;BME280;66903;59.926;30.404;2023-08-12T13:11:07;101848.97;;;31.92;35.75
77737;BME280;66903;59.926;30.404;2023-08-12T13:16:08;101852.53;;;31.89;35.89
77737;BME280;66903;59.926;30.404;2023-08-12T13:21:08;101845.88;;;31.88;36.41
77737;BME280;66903;59.926;30.404;2023-08-12T13:26:09;101842.78;;;31.85;36.75
77737;BME280;66903;59.926;30.404;2023-08-12T13:31:10;101837.66;;;31.82;36.38
77737;BME280;66903;59.926;30.404;2023-08-12T13:36:11;101853.72;;;31.88;36.44
77737;BME280;66903;59.926;30.404;2023-08-12T13:41:12;101850.50;;;31.89;37.16
77737;BME280;66903;59.926;30.404;2023-08-12T13:46:13;101845.66;;;31.85;37.28
77737;BME280;66903;59.926;30.404;2023-08-12T13:51:13;101849.63;;;31.58;37.38
77737;BME280;66903;59.926;30.404;2023-08-12T13:56:14;101847.31;;;31.46;37.61
77737;BME280;66903;59.926;30.404;2023-08-12T14:01:16;101846.06;;;31.39;37.83
77737;BME280;66903;59.926;30.404;2023-08-12T14:06:16;101849.66;;;31.22;38.09
77737;BME280;66903;59.926;30.404;2023-08-12T14:11:17;101859.00;;;31.06;38.36
77737;BME280;66903;59.926;30.404;2023-08-12T14:16:18;101852.28;;;31.10;38.53
77737;BME280;66903;59.926;30.404;2023-08-12T14:21:18;101854.38;;;31.18;38.70
77737;BME280;66903;59.926;30.404;2023-08-12T14:26:19;101842.53;;;31.28;38.72
77737;BME280;66903;59.926;30.404;2023-08-12T14:31:19;101851.34;;;31.37;38.41
77737;BME280;66903;59.926;30.404;2023-08-12T14:36:20;101853.38;;;31.36;38.16
77737;BME280;66903;59.926;30.404;2023-08-12T14:41:21;101846.84;;;31.09;38.68
77737;BME280;66903;59.926;30.404;2023-08-12T14:46:21;101852.78;;;30.77;38.86
77737;BME280;66903;59.926;30.404;2023-08-12T14:51:22;101850.72;;;30.28;39.38
77737;BME280;66903;59.926;30.404;2023-08-12T14:56:23;101848.66;;;30.15;40.07
77737;BME280;66903;59.926;30.404;2023-08-12T15:01:23;101851.03;;;30.40;39.60
77737;BME280;66903;59.926;30.404;2023-08-12T15:06:28;101858.72;;;30.44;39.71
77737;BME280;66903;59.926;30.404;2023-08-12T15:11:28;101848.88;;;30.59;39.59
77737;BME280;66903;59.926;30.404;2023-08-12T15:16:29;101847.59;;;30.65;39.77
77737;BME280;66903;59.926;30.404;2023-08-12T15:21:30;101850.13;;;30.80;39.54
77737;BME280;66903;59.926;30.404;2023-08-12T15:26:30;101848.19;;;30.89;39.09
77737;BME280;66903;59.926;30.404;2023-08-12T15:31:31;101849.22;;;30.93;39.01
77737;BME280;66903;59.926;30.404;2023-08-12T15:36:32;101852.22;;;30.88;39.47
77737;BME280;66903;59.926;30.404;2023-08-12T15:41:40;101857.59;;;30.68;38.83
77737;BME280;66903;59.926;30.404;2023-08-12T15:46:42;101840.34;;;30.27;39.31
77737;BME280;66903;59.926;30.404;2023-08-12T15:51:42;101839.91;;;30.20;39.94
77737;BME280;66903;59.926;30.404;2023-08-12T15:56:43;101842.25;;;30.18;39.45
77737;BME280;66903;59.926;30.404;2023-08-12T16:01:43;101843.13;;;30.05;39.93
77737;BME280;66903;59.926;30.404;2023-08-12T16:06:44;101840.56;;;30.17;39.50
77737;BME280;66903;59.926;30.404;2023-08-12T16:11:45;101851.16;;;30.35;39.72
77737;BME280;66903;59.926;30.404;2023-08-12T16:16:46;101845.44;;;30.57;38.96
77737;BME280;66903;59.926;30.404;2023-08-12T16:21:46;101841.16;;;30.68;38.85
77737;BME280;66903;59.926;30.404;2023-08-12T16:26:47;101841.16;;;30.68;38.18
77737;BME280;66903;59.926;30.404;2023-08-12T16:31:47;101839.44;;;30.67;38.45
77737;BME280;66903;59.926;30.404;2023-08-12T16:36:48;101836.78;;;30.57;38.48
77737;BME280;66903;59.926;30.404;2023-08-12T16:41:49;101833.19;;;30.38;39.16
77737;BME280;66903;59.926;30.404;2023-08-12T16:46:49;101844.81;;;30.47;38.79
77737;BME280;66903;59.926;30.404;2023-08-12T16:51:50;101839.19;;;30.41;38.79
77737;BME280;66903;59.926;30.404;2023-08-12T16:56:51;101838.22;;;30.32;38.74
77737;BME280;66903;59.926;30.404;2023-08-12T17:01:51;101830.97;;;30.35;38.88
77737;BME280;66903;59.926;30.404;2023-08-12T17:06:52;101832.88;;;30.39;38.98
77737;BME280;66903;59.926;30.404;2023-08-12T17:11:53;101839.75;;;30.30;39.06
77737;BME280;66903;59.926;30.404;2023-08-12T17:16:53;101832.97;;;30.21;38.81
77737;BME280;66903;59.926;30.404;2023-08-12T17:21:54;101830.22;;;30.16;39.27
77737;BME280;66903;59.926;30.404;2023-08-12T17:26:54;101839.81;;;29.98;39.71
77737;BME280;66903;59.926;30.404;2023-08-12T17:31:55;101824.53;;;29.84;39.81
77737;BME280;66903;59.926;30.404;2023-08-12T17:36:55;101832.84;;;29.85;40.05
77737;BME280;66903;59.926;30.404;2023-08-12T17:41:56;101835.09;;;29.88;39.53
77737;BME280;66903;59.926;30.404;2023-08-12T17:46:57;101838.63;;;29.99;39.56
77737;BME280;66903;59.926;30.404;2023-08-12T17:51:57;101835.84;;;29.80;40.37
77737;BME280;66903;59.926;30.404;2023-08-12T17:56:58;101825.09;;;29.54;40.42
77737;BME280;66903;59.926;30.404;2023-08-12T18:01:58;101825.22;;;29.30;40.62
77737;BME280;66903;59.926;30.404;2023-08-12T18:06:59;101815.41;;;29.17;41.14
77737;BME280;66903;59.926;30.404;2023-08-12T18:12:00;101811.75;;;29.12;41.08
77737;BME280;66903;59.926;30.404;2023-08-12T18:17:00;101810.69;;;28.89;41.84
77737;BME280;66903;59.926;30.404;2023-08-12T18:22:01;101809.19;;;28.55;42.09
77737;BME280;66903;59.926;30.404;2023-08-12T18:27:01;101812.03;;;28.36;42.71
77737;BME280;66903;59.926;30.404;2023-08-12T18:32:02;101794.16;;;28.20;43.11
77737;BME280;66903;59.926;30.404;2023-08-12T18:37:03;101806.31;;;28.12;43.05
77737;BME280;66903;59.926;30.404;2023-08-12T18:42:03;101804.19;;;27.99;44.78
77737;BME280;66903;59.926;30.404;2023-08-12T18:47:04;101806.63;;;28.11;45.77
77737;BME280;66903;59.926;30.404;2023-08-12T18:52:05;101809.00;;;28.46;45.48
77737;BME280;66903;59.926;30.404;2023-08-12T18:57:05;101811.75;;;28.75;45.27
77737;BME280;66903;59.926;30.404;2023-08-12T19:02:07;101804.19;;;28.97;44.23
77737;BME280;66903;59.926;30.404;2023-08-12T19:07:08;101805.03;;;29.16;44.06
77737;BME280;66903;59.926;30.404;2023-08-12T19:12:09;101794.88;;;29.05;44.08
77737;BME280;66903;59.926;30.404;2023-08-12T19:17:10;101803.91;;;29.17;43.65
77737;BME280;66903;59.926;30.404;2023-08-12T19:22:11;101793.44;;;29.21;43.78
77737;BME280;66903;59.926;30.404;2023-08-12T19:27:11;101811.16;;;29.28;44.99
77737;BME280;66903;59.926;30.404;2023-08-12T19:32:12;101806.28;;;29.42;44.83
77737;BME280;66903;59.926;30.404;2023-08-12T19:37:12;101801.63;;;29.47;45.16
77737;BME280;66903;59.926;30.404;2023-08-12T19:42:13;101799.06;;;29.59;44.58
77737;BME280;66903;59.926;30.404;2023-08-12T19:47:14;101810.59;;;29.59;44.82
77737;BME280;66903;59.926;30.404;2023-08-12T19:52:15;101802.50;;;29.61;44.25
77737;BME280;66903;59.926;30.404;2023-08-12T19:57:15;101806.56;;;29.60;44.96
77737;BME280;66903;59.926;30.404;2023-08-12T20:02:16;101800.69;;;29.65;44.82
77737;BME280;66903;59.926;30.404;2023-08-12T20:07:16;101800.72;;;29.78;44.46
77737;BME280;66903;59.926;30.404;2023-08-12T20:12:17;101792.75;;;29.75;44.59
77737;BME280;66903;59.926;30.404;2023-08-12T20:17:17;101791.72;;;29.66;44.75
77737;BME280;66903;59.926;30.404;2023-08-12T20:22:20;101792.78;;;29.57;45.10
77737;BME280;66903;59.926;30.404;2023-08-12T20:27:23;101791.56;;;29.44;45.53
77737;BME280;66903;59.926;30.404;2023-08-12T20:32:23;101778.66;;;29.28;45.60
77737;BME280;66903;59.926;30.404;2023-08-12T20:37:30;101776.63;;;28.96;45.38
77737;BME280;66903;59.926;30.404;2023-08-12T20:42:31;101768.31;;;28.76;46.64
77737;BME280;66903;59.926;30.404;2023-08-12T20:47:31;101762.31;;;28.91;46.78
77737;BME280;66903;59.926;30.404;2023-08-12T20:52:32;101756.75;;;29.13;46.48
77737;BME280;66903;59.926;30.404;2023-08-12T20:57:32;101759.19;;;29.38;46.25
77737;BME280;66903;59.926;30.404;2023-08-12T21:02:34;101761.75;;;29.54;46.05
77737;BME280;66903;59.926;30.404;2023-08-12T21:07:35;101756.84;;;29.54;45.85
77737;BME280;66903;59.926;30.404;2023-08-12T21:12:35;101743.81;;;29.43;46.31
77737;BME280;66903;59.926;30.404;2023-08-12T21:17:36;101745.28;;;29.40;45.82
77737;BME280;66903;59.926;30.404;2023-08-12T21:22:37;101744.50;;;29.21;46.87
77737;BME280;66903;59.926;30.404;2023-08-12T21:27:37;101754.44;;;29.15;46.95
77737;BME280;66903;59.926;30.404;2023-08-12T21:32:38;101757.94;;;29.12;46.69
77737;BME280;66903;59.926;30.404;2023-08-12T21:37:40;101743.00;;;29.10;47.03
77737;BME280;66903;59.926;30.404;2023-08-12T21:42:41;101744.13;;;29.09;47.07
77737;BME280;66903;59.926;30.404;2023-08-12T21:47:41;101726.88;;;29.09;47.16
77737;BME280;66903;59.926;30.404;2023-08-12T21:52:42;101725.44;;;29.12;46.76
77737;BME280;66903;59.926;30.404;2023-08-12T21:57:43;101737.06;;;29.20;46.93
77737;BME280;66903;59.926;30.404;2023-08-12T22:02:43;101727.59;;;29.33;46.66
77737;BME280;66903;59.926;30.404;2023-08-12T22:07:44;101730.69;;;29.37;46.41
77737;BME280;66903;59.926;30.404;2023-08-12T22:12:45;101724.84;;;29.42;46.44
77737;BME280;66903;59.926;30.404;2023-08-12T22:17:45;101715.25;;;29.47;46.48
77737;BME280;66903;59.926;30.404;2023-08-12T22:22:49;101714.06;;;29.48;46.56
77737;BME280;66903;59.926;30.404;2023-08-12T22:27:49;101705.41;;;29.48;46.88
77737;BME280;66903;59.926;30.404;2023-08-12T22:32:50;101704.59;;;29.47;46.64
77737;BME280;66903;59.926;30.404;2023-08-12T22:37:51;101700.84;;;29.47;47.27
77737;BME280;66903;59.926;30.404;2023-08-12T22:42:51;101697.09;;;29.46;47.24
77737;BME280;66903;59.926;30.404;2023-08-12T22:47:52;101704.38;;;29.44;47.60
77737;BME280;66903;59.926;30.404;2023-08-12T22:52:52;101703.06;;;29.50;47.27
77737;BME280;66903;59.926;30.404;2023-08-12T22:57:53;101703.41;;;29.48;47.19
77737;BME280;66903;59.926;30.404;2023-08-12T23:02:54;101703.06;;;29.50;46.59
77737;BME280;66903;59.926;30.404;2023-08-12T23:07:54;101705.13;;;29.49;46.98
77737;BME280;66903;59.926;30.404;2023-08-12T23:12:55;101691.56;;;29.50;47.40
77737;BME280;66903;59.926;30.404;2023-08-12T23:17:55;101686.56;;;29.55;47.56
77737;BME280;66903;59.926;30.404;2023-08-12T23:22:57;101706.38;;;29.57;47.69
77737;BME280;66903;59.926;30.404;2023-08-12T23:27:57;101712.16;;;29.57;47.40
77737;BME280;66903;59.926;30.404;2023-08-12T23:32:58;101713.00;;;29.57;47.80
77737;BME280;66903;59.926;30.404;2023-08-12T23:37:58;101708.72;;;29.55;47.44
77737;BME280;66903;59.926;30.404;2023-08-12T23:42:59;101710.44;;;29.56;47.40
77737;BME280;66903;59.926;30.404;2023-08-12T23:48:00;101700.94;;;29.55;47.19
77737;BME280;66903;59.926;30.404;2023-08-12T23:53:00;101701.38;;;29.49;47.79
77737;BME280;66903;59.926;30.404;2023-08-12T23:58:01;101690.72;;;29.49;48.19
